sensor_id;sensor_type;location;lat;lon;timestamp;temperature;humidity
49148;DHT22;41980;45.550;12.070;2023-01-01T00:04:46;10.10;84.50
49148;DHT22;41980;45.550;12.070;2023-01-01T00:32:27;10.00;84.60
49148;DHT22;41980;45.550;12.070;2023-01-01T01:07:01;10.00;84.50
49148;DHT22;41980;45.550;12.070;2023-01-01T04:59:07;10.00;84.70
49148;DHT22;41980;45.550;12.070;2023-01-01T05:06:11;10.00;84.80
49148;DHT22;41980;45.550;12.070;2023-01-01T05:13:29;10.00;84.80
49148;DHT22;41980;45.550;12.070;2023-01-01T05:34:12;9.90;84.80
49148;DHT22;41980;45.550;12.070;2023-01-01T05:47:43;9.90;84.90
49148;DHT22;41980;45.550;12.070;2023-01-01T05:54:30;9.90;84.90
49148;DHT22;41980;45.550;12.070;2023-01-01T06:01:21;9.90;84.90
49148;DHT22;41980;45.550;12.070;2023-01-01T06:08:14;9.90;85.00
49148;DHT22;41980;45.550;12.070;2023-01-01T06:15:33;9.90;84.90
49148;DHT22;41980;45.550;12.070;2023-01-01T06:22:24;9.90;84.80
49148;DHT22;41980;45.550;12.070;2023-01-01T06:36:21;9.90;84.90
49148;DHT22;41980;45.550;12.070;2023-01-01T06:49:37;9.80;84.90
49148;DHT22;41980;45.550;12.070;2023-01-01T06:56:30;9.80;84.90
49148;DHT22;41980;45.550;12.070;2023-01-01T07:03:08;9.80;84.90
49148;DHT22;41980;45.550;12.070;2023-01-01T07:10:04;9.70;84.90
49148;DHT22;41980;45.550;12.070;2023-01-01T07:24:22;9.70;85.50
49148;DHT22;41980;45.550;12.070;2023-01-01T07:31:09;9.80;85.10
49148;DHT22;41980;45.550;12.070;2023-01-01T07:37:37;9.90;85.10
49148;DHT22;41980;45.550;12.070;2023-01-01T07:44:31;9.90;85.00
49148;DHT22;41980;45.550;12.070;2023-01-01T07:59:30;10.00;84.90
49148;DHT22;41980;45.550;12.070;2023-01-01T09:26:22;11.70;84.00
49148;DHT22;41980;45.550;12.070;2023-01-01T09:33:02;11.80;84.00
49148;DHT22;41980;45.550;12.070;2023-01-01T09:39:04;11.90;83.90
49148;DHT22;41980;45.550;12.070;2023-01-01T09:45:20;12.00;84.00
49148;DHT22;41980;45.550;12.070;2023-01-01T09:51:25;12.10;83.80
49148;DHT22;41980;45.550;12.070;2023-01-01T09:57:31;12.30;83.80
49148;DHT22;41980;45.550;12.070;2023-01-01T10:10:03;12.20;83.60
49148;DHT22;41980;45.550;12.070;2023-01-01T10:22:31;12.10;83.90
49148;DHT22;41980;45.550;12.070;2023-01-01T10:28:47;12.20;83.90
49148;DHT22;41980;45.550;12.070;2023-01-01T10:34:53;12.40;83.80
49148;DHT22;41980;45.550;12.070;2023-01-01T10:41:05;12.50;83.70
49148;DHT22;41980;45.550;12.070;2023-01-01T10:47:22;12.60;83.50
49148;DHT22;41980;45.550;12.070;2023-01-01T10:59:37;12.70;83.40
49148;DHT22;41980;45.550;12.070;2023-01-01T11:05:39;12.70;83.30
49148;DHT22;41980;45.550;12.070;2023-01-01T11:12:03;12.70;83.30
49148;DHT22;41980;45.550;12.070;2023-01-01T11:18:24;12.70;83.30
49148;DHT22;41980;45.550;12.070;2023-01-01T11:24:29;12.70;83.40
49148;DHT22;41980;45.550;12.070;2023-01-01T11:30:32;12.70;83.00
49148;DHT22;41980;45.550;12.070;2023-01-01T11:36:35;12.70;83.40
49148;DHT22;41980;45.550;12.070;2023-01-01T11:42:45;12.80;83.20
49148;DHT22;41980;45.550;12.070;2023-01-01T11:48:53;13.00;83.20
49148;DHT22;41980;45.550;12.070;2023-01-01T11:55:08;13.20;83.10
49148;DHT22;41980;45.550;12.070;2023-01-01T12:01:35;13.30;82.50
49148;DHT22;41980;45.550;12.070;2023-01-01T12:07:42;13.30;82.80
49148;DHT22;41980;45.550;12.070;2023-01-01T12:13:54;13.40;82.90
49148;DHT22;41980;45.550;12.070;2023-01-01T12:26:43;13.40;82.60
49148;DHT22;41980;45.550;12.070;2023-01-01T12:58:29;13.10;82.80
49148;DHT22;41980;45.550;12.070;2023-01-01T13:04:36;13.10;82.70
49148;DHT22;41980;45.550;12.070;2023-01-01T13:10:42;13.20;82.90
49148;DHT22;41980;45.550;12.070;2023-01-01T13:16:50;13.30;82.80
49148;DHT22;41980;45.550;12.070;2023-01-01T13:22:53;13.40;82.80
49148;DHT22;41980;45.550;12.070;2023-01-01T13:35:01;13.50;82.60
49148;DHT22;41980;45.550;12.070;2023-01-01T13:41:03;13.60;82.50
49148;DHT22;41980;45.550;12.070;2023-01-01T13:47:31;13.50;82.40
49148;DHT22;41980;45.550;12.070;2023-01-01T14:06:01;13.30;82.70
49148;DHT22;41980;45.550;12.070;2023-01-01T14:12:14;13.20;82.70
49148;DHT22;41980;45.550;12.070;2023-01-01T14:18:17;13.10;82.80
49148;DHT22;41980;45.550;12.070;2023-01-01T14:24:23;13.00;82.80
49148;DHT22;41980;45.550;12.070;2023-01-01T14:30:30;12.90;82.90
49148;DHT22;41980;45.550;12.070;2023-01-01T14:36:34;12.80;83.00
49148;DHT22;41980;45.550;12.070;2023-01-01T14:42:36;12.70;82.90
49148;DHT22;41980;45.550;12.070;2023-01-01T14:48:44;12.60;83.00
49148;DHT22;41980;45.550;12.070;2023-01-01T14:54:48;12.40;83.00
49148;DHT22;41980;45.550;12.070;2023-01-01T15:00:54;12.30;83.10
49148;DHT22;41980;45.550;12.070;2023-01-01T15:07:25;12.20;83.20
49148;DHT22;41980;45.550;12.070;2023-01-01T15:13:27;12.10;83.30
49148;DHT22;41980;45.550;12.070;2023-01-01T15:19:29;12.20;83.40
49148;DHT22;41980;45.550;12.070;2023-01-01T15:25:31;12.20;83.30
49148;DHT22;41980;45.550;12.070;2023-01-01T15:31:40;12.10;83.40
49148;DHT22;41980;45.550;12.070;2023-01-01T15:37:49;12.10;83.30
49148;DHT22;41980;45.550;12.070;2023-01-01T15:50:35;12.00;83.50
49148;DHT22;41980;45.550;12.070;2023-01-01T15:57:18;11.90;83.50
49148;DHT22;41980;45.550;12.070;2023-01-01T16:03:51;11.90;83.50
49148;DHT22;41980;45.550;12.070;2023-01-01T16:10:14;11.90;83.60
49148;DHT22;41980;45.550;12.070;2023-01-01T16:16:32;11.90;83.60
49148;DHT22;41980;45.550;12.070;2023-01-01T16:22:35;11.90;83.60
49148;DHT22;41980;45.550;12.070;2023-01-01T16:28:38;11.90;83.70
49148;DHT22;41980;45.550;12.070;2023-01-01T16:34:43;11.90;83.60
49148;DHT22;41980;45.550;12.070;2023-01-01T16:40:45;11.90;83.70
49148;DHT22;41980;45.550;12.070;2023-01-01T16:46:48;11.80;83.60
49148;DHT22;41980;45.550;12.070;2023-01-01T16:52:50;11.80;83.60
49148;DHT22;41980;45.550;12.070;2023-01-01T16:59:01;11.80;83.70
49148;DHT22;41980;45.550;12.070;2023-01-01T17:05:34;11.80;83.70
49148;DHT22;41980;45.550;12.070;2023-01-01T17:11:58;11.80;83.80
49148;DHT22;41980;45.550;12.070;2023-01-01T17:18:25;11.80;83.80
49148;DHT22;41980;45.550;12.070;2023-01-01T17:24:39;11.70;83.80
49148;DHT22;41980;45.550;12.070;2023-01-01T17:30:42;11.60;83.90
49148;DHT22;41980;45.550;12.070;2023-01-01T17:36:45;11.60;83.90
49148;DHT22;41980;45.550;12.070;2023-01-01T17:42:47;11.60;84.00
49148;DHT22;41980;45.550;12.070;2023-01-01T17:48:49;11.50;84.00
49148;DHT22;41980;45.550;12.070;2023-01-01T17:54:53;11.50;84.00
49148;DHT22;41980;45.550;12.070;2023-01-01T18:07:23;11.50;84.00
49148;DHT22;41980;45.550;12.070;2023-01-01T18:13:28;11.40;84.10
49148;DHT22;41980;45.550;12.070;2023-01-01T18:19:32;11.40;84.10
49148;DHT22;41980;45.550;12.070;2023-01-01T18:25:36;11.30;84.00
49148;DHT22;41980;45.550;12.070;2023-01-01T18:31:38;11.30;84.20
49148;DHT22;41980;45.550;12.070;2023-01-01T18:37:46;11.20;84.10
49148;DHT22;41980;45.550;12.070;2023-01-01T18:50:38;10.90;84.30
49148;DHT22;41980;45.550;12.070;2023-01-01T18:56:44;10.80;84.50
49148;DHT22;41980;45.550;12.070;2023-01-01T19:15:56;10.80;84.70
49148;DHT22;41980;45.550;12.070;2023-01-01T19:35:13;10.80;84.60
49148;DHT22;41980;45.550;12.070;2023-01-01T19:41:41;10.80;84.50
49148;DHT22;41980;45.550;12.070;2023-01-01T19:47:54;10.80;84.60
49148;DHT22;41980;45.550;12.070;2023-01-01T19:54:02;10.90;84.50
49148;DHT22;41980;45.550;12.070;2023-01-01T20:00:05;10.90;84.60
49148;DHT22;41980;45.550;12.070;2023-01-01T20:06:20;10.90;84.50
49148;DHT22;41980;45.550;12.070;2023-01-01T20:12:29;10.90;84.60
49148;DHT22;41980;45.550;12.070;2023-01-01T20:18:38;10.90;84.60
49148;DHT22;41980;45.550;12.070;2023-01-01T21:18:35;10.90;84.80
49148;DHT22;41980;45.550;12.070;2023-01-01T21:25:42;10.90;84.80
49148;DHT22;41980;45.550;12.070;2023-01-01T22:21:43;11.00;84.70
49148;DHT22;41980;45.550;12.070;2023-01-01T22:28:36;11.00;84.60
49148;DHT22;41980;45.550;12.070;2023-01-01T22:35:37;11.00;84.50
49148;DHT22;41980;45.550;12.070;2023-01-01T22:42:18;11.00;84.60
49148;DHT22;41980;45.550;12.070;2023-01-01T23:09:04;11.00;84.50
49148;DHT22;41980;45.550;12.070;2023-01-01T23:29:32;11.00;84.60
49148;DHT22;41980;45.550;12.070;2023-01-01T23:35:35;10.90;84.70
49148;DHT22;41980;45.550;12.070;2023-01-01T23:41:38;10.90;84.70
49148;DHT22;41980;45.550;12.070;2023-01-01T23:47:47;10.90;84.70
49148;DHT22;41980;45.550;12.070;2023-01-01T23:53:52;10.90;84.70
